Time;durP1;ratioP1;P1;durP2;ratioP2;P2;SDS_P1;SDS_P2;PMS_P1;PMS_P2;Temp;Humidity;BMP_temperature;BMP_pressure;BME280_temperature;BME280_humidity;BME280_pressure;Samples;Min_cycle;Max_cycle;Signal;HPM_P1;HPM_P2
2022/11/24 00:02:30;;;;;;;;;7.25;3.00;;;;;8.38;100.00;99915.44;6171438;22;45103;-91
2022/11/24 00:05:39;;;;;;;;;;;;;;;;;;;;;
2022/11/24 00:08:30;;;;;;;;;;;;;;;;;;;;;
2022/11/24 00:11:33;;;;;;;;;;;;;;;;;;;;;
2022/11/24 00:14:18;;;;;;;;;;;;;;;;;;;;;
2022/11/24 00:17:02;;;;;;;;;;;;;;;;;;;;;
2022/11/24 00:19:49;;;;;;;;;2.00;2.00;;;;;7.61;100.00;99781.94;6159945;23;68810;-93
2022/11/24 00:22:18;;;;;;;;;6.00;3.25;;;;;8.48;100.00;99940.72;6115661;23;45510;-92
2022/11/24 00:25:04;;;;;;;;;8.00;3.25;;;;;8.51;100.00;99922.22;6129019;23;45420;-92
2022/11/24 00:27:42;;;;;;;;;2.50;2.00;;;;;7.93;100.00;99830.41;6127162;23;45383;-92
2022/11/24 00:30:28;;;;;;;;;4.00;1.00;;;;;8.52;100.00;99913.44;6129639;23;45328;-92
2022/11/24 00:33:27;;;;;;;;;2.00;1.00;;;;;8.57;100.00;99910.69;6158033;23;45267;-91
2022/11/24 00:36:16;;;;;;;;;2.00;2.00;;;;;7.20;100.00;99660.09;6136829;23;47104;-91
2022/11/24 00:39:32;;;;;;;;;4.75;2.50;;;;;7.64;100.00;99725.78;6138689;23;44768;-92
2022/11/24 00:42:03;;;;;;;;;1.25;1.25;;;;;8.66;100.00;99874.47;6050531;23;44882;-92
2022/11/24 00:44:34;;;;;;;;;3.25;3.25;;;;;7.56;100.00;99680.34;6045750;23;45486;-92
2022/11/24 00:47:09;;;;;;;;;1.00;0.00;;;;;8.71;100.00;99862.06;6081990;23;46863;-93
2022/11/24 00:53:18;;;;;;;;;1.25;1.00;;;;;8.40;100.00;99792.53;6099669;23;45174;-92
2022/11/24 00:56:01;;;;;;;;;;;;;;;;;;;;;
2022/11/24 00:58:42;;;;;;;;;3.00;3.00;;;;;8.08;99.28;99733.59;6047177;23;45497;-92
2022/11/24 01:01:30;;;;;;;;;1.50;1.50;;;;;7.70;100.00;99651.13;6048332;23;45576;-92
2022/11/24 01:04:21;;;;;;;;;3.25;1.00;;;;;8.38;100.00;99773.25;6059146;23;44705;-92
2022/11/24 01:07:07;;;;;;;;;2.25;0.75;;;;;8.11;99.36;99717.72;6054770;23;44809;-92
2022/11/24 01:09:54;;;;;;;;;2.00;1.00;;;;;9.00;99.00;99872.78;6023800;23;47183;-91
2022/11/24 01:12:34;;;;;;;;;0.75;0.75;;;;;7.90;98.03;99696.25;6045777;23;45420;-92
2022/11/24 01:15:01;;;;;;;;;3.25;1.00;;;;;7.90;98.77;99706.78;6017926;23;45206;-91
2022/11/24 01:17:44;;;;;;;;;2.00;0.75;;;;;8.66;99.34;99829.69;6027361;23;45458;-91
2022/11/24 01:20:15;;;;;;;;;1.00;1.00;;;;;8.68;98.85;99840.19;6158109;23;47760;-92
2022/11/24 01:22:54;;;;;;;;;0.50;0.50;;;;;8.02;96.80;99724.06;6156510;23;45327;-91
2022/11/24 01:25:27;;;;;;;;;0.00;0.00;;;;;9.00;98.21;99910.56;6159391;23;45277;-91
2022/11/24 01:27:58;;;;;;;;;1.00;0.00;;;;;7.70;97.62;99712.50;6165515;23;45310;-92
2022/11/24 01:37:18;;;;;;;;;1.25;1.25;;;;;8.87;98.30;99949.53;6144338;23;45450;-93
2022/11/24 01:43:36;;;;;;;;;1.25;0.00;;;;;6.99;98.59;99661.38;6125796;23;45457;-92
2022/11/24 01:46:35;;;;;;;;;3.00;0.75;;;;;8.60;99.13;99953.63;6077339;23;45411;-92
2022/11/24 01:49:34;;;;;;;;;1.25;1.00;;;;;8.66;99.96;99969.31;6101729;23;45220;-92
2022/11/24 01:52:24;;;;;;;;;1.00;0.00;;;;;7.47;99.50;99781.38;6136914;23;45375;-94
2022/11/24 01:55:21;;;;;;;;;1.75;0.00;;;;;8.20;99.14;99928.13;6130954;23;46934;-92
2022/11/24 01:58:09;;;;;;;;;1.00;1.00;;;;;6.73;99.96;99672.41;6095529;23;45498;-91
2022/11/24 02:00:45;;;;;;;;;0.25;0.25;;;;;6.52;99.63;99661.38;6094426;23;45198;-92
2022/11/24 02:03:41;;;;;;;;;0.00;0.00;;;;;6.70;99.62;99696.09;6134793;23;45245;-92
2022/11/24 02:09:57;;;;;;;;;0.00;0.00;;;;;7.58;100.00;99863.53;6133807;22;44779;-91
2022/11/24 02:12:42;;;;;;;;;0.00;0.00;;;;;7.38;100.00;99855.13;6221632;22;45195;-92
2022/11/24 02:15:38;;;;;;;;;0.00;0.00;;;;;7.11;100.00;99808.31;6124849;22;45356;-92
2022/11/24 02:18:18;;;;;;;;;2.00;0.25;;;;;6.71;100.00;99773.97;6216966;22;45636;-91
2022/11/24 02:20:52;;;;;;;;;0.00;0.00;;;;;7.99;100.00;99980.28;6193815;22;45148;-93
2022/11/24 02:27:05;;;;;;;;;2.00;1.00;;;;;7.19;100.00;99852.84;6134747;23;45621;-92
2022/11/24 02:30:12;;;;;;;;;;;;;;;;;;;;;
2022/11/24 02:33:11;;;;;;;;;1.00;1.00;;;;;8.22;100.00;100036.88;6138760;23;73320;-93
2022/11/24 02:36:42;;;;;;;;;;;;;;;;;;;;;
2022/11/24 02:39:35;;;;;;;;;1.00;0.00;;;;;8.11;100.00;100060.78;6137975;23;44910;-93
2022/11/24 02:42:21;;;;;;;;;0.00;0.00;;;;;5.89;100.00;99686.00;6135060;23;47170;-95
2022/11/24 02:45:37;;;;;;;;;;;;;;;;;;;;;
2022/11/24 02:48:35;;;;;;;;;0.00;0.00;;;;;6.34;100.00;99808.69;6128632;23;68873;-96
2022/11/24 02:51:26;;;;;;;;;0.50;0.50;;;;;6.79;100.00;99863.13;6110832;23;45371;-94
2022/11/24 02:54:18;;;;;;;;;3.00;1.50;;;;;7.67;100.00;100022.97;6131060;23;45329;-95
2022/11/24 02:56:51;;;;;;;;;1.75;0.75;;;;;6.83;100.00;99899.88;6097438;23;45343;-92
2022/11/24 02:59:29;;;;;;;;;0.50;0.50;;;;;7.65;100.00;100040.50;6140875;23;44773;-92
2022/11/24 03:02:09;;;;;;;;;0.75;0.50;;;;;7.89;100.00;100076.06;6141592;23;45217;-92
2022/11/24 03:04:40;;;;;;;;;0.00;0.00;;;;;8.05;100.00;100129.34;6174322;22;45220;-92
2022/11/24 03:07:21;;;;;;;;;1.00;1.00;;;;;6.99;100.00;99941.66;6196574;22;45183;-94
2022/11/24 03:10:12;;;;;;;;;;;;;;;;;;;;;
2022/11/24 03:12:49;;;;;;;;;1.00;1.00;;;;;6.14;100.00;99827.34;6217549;22;69141;-93
2022/11/24 03:15:36;;;;;;;;;1.00;1.00;;;;;6.39;100.00;99867.22;6194641;22;48015;-93
2022/11/24 03:39:17;;;;;;;;;0.50;0.50;;;;;7.94;100.00;100163.72;6100000;23;45395;-94
2022/11/24 03:48:54;;;;;;;;;2.25;1.75;;;;;6.11;100.00;99878.09;5990787;23;44620;-93
2022/11/24 03:51:49;;;;;;;;;1.00;1.00;;;;;6.71;100.00;99978.81;5989894;23;45401;-94
2022/11/24 03:54:46;;;;;;;;;;;;;;;;;;;;;
2022/11/24 04:01:07;;;;;;;;;;;;;;;;;;;;;
2022/11/24 04:07:17;;;;;;;;;;;;;;;;;;;;;
2022/11/24 04:23:16;;;;;;;;;;;;;;;;;;;;;
2022/11/24 04:26:28;;;;;;;;;2.00;1.00;;;;;7.72;100.00;100196.50;5878606;24;45552;-93
2022/11/24 04:30:16;;;;;;;;;;;;;;;;;;;;;
2022/11/24 04:33:54;;;;;;;;;;;;;;;;;;;;;
2022/11/24 04:44:46;;;;;;;;;;;;;;;;;;;;;
2022/11/24 04:48:12;;;;;;;;;;;;;;;;;;;;;
2022/11/24 05:02:01;;;;;;;;;4.25;1.00;;;;;7.53;100.00;100246.75;5943414;23;44943;-93
2022/11/24 05:09:01;;;;;;;;;;;;;;;;;;;;;
2022/11/24 05:39:30;;;;;;;;;;;;;;;;;;;;;
2022/11/24 05:49:25;;;;;;;;;2.25;1.00;;;;;5.33;100.00;99953.22;5858350;24;44767;-94
2022/11/24 06:02:24;;;;;;;;;;;;;;;;;;;;;
2022/11/24 06:12:12;;;;;;;;;3.00;1.00;;;;;6.42;100.00;100202.38;5873313;24;45442;-94
2022/11/24 06:21:58;;;;;;;;;;;;;;;;;;;;;
2022/11/24 06:25:15;;;;;;;;;2.75;2.75;;;;;5.42;100.00;100041.34;5822392;24;73191;-93
2022/11/24 06:35:24;;;;;;;;;;;;;;;;;;;;;
2022/11/24 06:38:33;;;;;;;;;3.25;1.00;;;;;5.81;100.00;100144.22;5820848;24;71634;-94
2022/11/24 06:45:15;;;;;;;;;2.25;1.00;;;;;5.29;100.00;100066.78;5822646;24;45596;-94
2022/11/24 06:48:32;;;;;;;;;;;;;;;;;;;;;
2022/11/24 06:55:12;;;;;;;;;3.00;1.00;;;;;6.25;100.00;100239.25;5985697;23;44731;-95
2022/11/24 07:04:49;;;;;;;;;1.00;1.00;;;;;6.90;100.00;100392.81;5916694;23;45223;-94
2022/11/24 07:14:47;;;;;;;;;2.75;0.75;;;;;6.13;100.00;100261.22;5826710;24;44922;-93
2022/11/24 07:20:43;;;;;;;;;3.00;2.00;;;;;6.92;100.00;100400.69;5750730;24;45489;-93
2022/11/24 07:26:48;;;;;;;;;3.00;3.00;;;;;5.32;100.00;100124.44;5733696;24;45368;-91
2022/11/24 07:29:31;;;;;;;;;5.75;2.75;;;;;6.14;100.00;100263.81;5730677;24;44829;-93
2022/11/24 07:32:02;;;;;;;;;1.75;1.00;;;;;5.55;100.00;100162.75;5728661;24;45323;-93
2022/11/24 07:34:34;;;;;;;;;1.00;1.00;;;;;6.12;100.00;100265.59;5807611;24;44886;-93
2022/11/24 07:37:13;;;;;;;;;3.50;1.00;;;;;5.10;100.00;100092.22;5859855;24;47474;-92
2022/11/24 07:39:41;;;;;;;;;1.50;1.00;;;;;7.07;100.00;100413.69;5951907;23;45415;-92
2022/11/24 07:42:09;;;;;;;;;1.50;1.50;;;;;7.09;100.00;100413.69;5980206;23;45411;-93
2022/11/24 07:48:46;;;;;;;;;;;;;;;;;;;;;
2022/11/24 07:51:17;;;;;;;;;2.50;2.25;;;;;5.82;100.00;100180.06;6173325;23;73595;-93
2022/11/24 07:53:53;;;;;;;;;5.50;4.00;;;;;6.21;100.00;100259.44;6170295;23;44929;-93
2022/11/24 07:57:05;;;;;;;;;2.00;2.00;;;;;7.30;100.00;100431.03;6195014;23;45498;-94
2022/11/24 08:07:17;;;;;;;;;3.75;3.75;;;;;6.88;100.00;100357.81;6218866;22;45316;-91
2022/11/24 08:09:44;;;;;;;;;3.00;3.00;;;;;7.32;100.00;100423.13;6195150;22;48205;-93
2022/11/24 08:12:14;;;;;;;;;3.00;3.00;;;;;7.63;100.00;100453.53;6201271;22;45284;-93
2022/11/24 08:18:59;;;;;;;;;3.25;3.25;;;;;7.81;100.00;100462.13;6226555;22;45201;-95
2022/11/24 08:21:34;;;;;;;;;2.00;2.00;;;;;7.61;100.00;100425.50;6140654;23;48253;-94
2022/11/24 08:24:08;;;;;;;;;2.75;2.75;;;;;6.23;100.00;100169.28;6145587;23;45404;-93
2022/11/24 08:26:33;;;;;;;;;7.50;3.50;;;;;6.77;100.00;100251.94;6168285;23;45231;-91
2022/11/24 08:32:21;;;;;;;;;7.25;4.00;;;;;8.45;100.00;100507.09;6173588;22;45279;-93
2022/11/24 08:35:05;;;;;;;;;3.25;3.25;;;;;8.20;100.00;100433.63;6165631;23;45289;-95
2022/11/24 08:38:18;;;;;;;;;2.25;2.00;;;;;8.74;100.00;100497.94;6145166;23;44669;-94
2022/11/24 08:40:44;;;;;;;;;5.00;1.75;;;;;8.90;100.00;100488.91;6163328;23;45453;-91
2022/11/24 08:43:09;;;;;;;;;3.00;3.00;;;;;7.38;100.00;100225.88;6154325;23;46853;-90
2022/11/24 08:45:34;;;;;;;;;2.75;2.25;;;;;9.12;100.00;100493.88;6132352;23;46066;-91
2022/11/24 08:48:00;;;;;;;;;3.25;2.00;;;;;9.19;100.00;100490.25;6160196;23;45256;-89
2022/11/24 08:50:26;;;;;;;;;3.75;2.75;;;;;8.67;100.00;100392.63;6153234;23;45561;-91
2022/11/24 08:52:53;;;;;;;;;4.00;2.00;;;;;8.64;100.00;100382.13;6158275;23;47296;-92
2022/11/24 08:55:18;;;;;;;;;2.00;2.00;;;;;8.33;100.00;100302.66;6141871;23;44814;-90
2022/11/24 08:57:46;;;;;;;;;3.75;2.00;;;;;9.52;100.00;100482.66;6166281;23;45362;-92
2022/11/24 09:00:21;;;;;;;;;3.50;1.50;;;;;8.62;100.00;100304.84;6165380;23;45304;-91
2022/11/24 09:03:33;;;;;;;;;3.25;2.00;;;;;9.83;100.00;100506.75;6158155;22;47405;-92
2022/11/24 09:06:23;;;;;;;;;;;;;;;;;;;;;
2022/11/24 09:09:18;;;;;;;;;1.00;1.00;;;;;9.30;99.64;100331.81;6213092;22;68814;-91
2022/11/24 09:12:24;;;;;;;;;1.25;1.00;;;;;9.12;98.43;100246.00;6155985;22;45416;-91
2022/11/24 09:15:22;;;;;;;;;4.75;3.50;;;;;10.97;97.87;100500.97;6225758;22;45361;-91
2022/11/24 09:17:50;;;;;;;;;2.50;2.50;;;;;10.10;96.37;100291.47;6192257;22;45504;-92
2022/11/24 09:20:39;;;;;;;;;4.00;1.00;;;;;10.53;96.19;100321.31;6189117;22;45377;-90
2022/11/24 09:23:13;;;;;;;;;2.75;2.00;;;;;10.26;95.79;100248.84;6193021;22;45224;-90
2022/11/24 09:25:44;;;;;;;;;3.00;3.00;;;;;10.57;94.61;100258.72;6221119;22;46969;-90
2022/11/24 09:28:14;;;;;;;;;2.75;2.00;;;;;11.47;93.89;100403.59;6201177;22;45437;-90
2022/11/24 09:30:45;;;;;;;;;3.50;3.00;;;;;11.45;94.07;100371.03;6193944;22;45256;-91
2022/11/24 09:33:26;;;;;;;;;;;;;;;;;;;;;
2022/11/24 09:36:30;;;;;;;;;2.50;2.50;;;;;11.56;93.06;100326.59;6222057;22;74397;-93
2022/11/24 09:39:06;;;;;;;;;3.50;2.50;;;;;11.72;93.31;100313.81;6196638;22;45302;-92
2022/11/24 09:42:03;;;;;;;;;3.25;2.75;;;;;12.04;92.75;100321.75;6222310;22;45266;-91
2022/11/24 09:45:16;;;;;;;;;1.00;1.00;;;;;12.16;91.24;100321.41;6222003;22;45233;-91
2022/11/24 09:48:19;;;;;;;;;2.50;2.00;;;;;11.73;90.94;100208.78;6064969;23;47507;-91
2022/11/24 09:50:51;;;;;;;;;2.00;2.00;;;;;13.54;91.59;100484.13;6041348;23;45270;-91
2022/11/24 09:53:51;;;;;;;;;4.25;3.00;;;;;13.88;89.53;100474.97;6048757;23;45313;-90
2022/11/24 09:56:44;;;;;;;;;;;;;;;;;;;;;
2022/11/24 09:59:19;;;;;;;;;1.00;1.00;;;;;13.99;88.57;100382.50;6072063;23;75514;-90
2022/11/24 10:01:50;;;;;;;;;1.75;1.75;;;;;13.76;87.01;100293.88;6067736;23;45371;-90
2022/11/24 10:04:36;;;;;;;;;3.00;1.75;;;;;14.27;85.56;100321.19;6040874;23;45462;-91
2022/11/24 10:07:10;;;;;;;;;4.50;3.00;;;;;15.44;85.69;100508.09;6062502;23;45535;-90
2022/11/24 10:20:27;;;;;;;;;1.75;1.75;;;;;15.95;86.10;100497.09;6076350;23;45396;-89
2022/11/24 10:22:52;;;;;;;;;3.50;1.25;;;;;15.36;84.61;100381.50;6076028;23;47567;-92
2022/11/24 10:25:35;;;;;;;;;3.50;3.50;;;;;14.87;82.36;100288.66;6045405;23;45412;-90
2022/11/24 10:28:15;;;;;;;;;3.00;3.00;;;;;16.08;83.36;100492.97;6043681;23;45495;-91
2022/11/24 10:30:46;;;;;;;;;4.75;4.75;;;;;15.50;83.27;100367.59;6069422;23;45388;-90
2022/11/24 10:33:21;;;;;;;;;2.75;2.75;;;;;15.56;80.92;100385.97;6067323;23;45662;-90
2022/11/24 10:36:19;;;;;;;;;3.50;2.00;;;;;14.38;81.12;100196.66;6073870;23;45246;-93
2022/11/24 10:39:20;;;;;;;;;3.00;3.00;;;;;13.93;82.49;100152.44;6048803;23;45427;-94
2022/11/24 10:42:02;;;;;;;;;5.00;3.00;;;;;14.62;82.23;100310.97;6060310;23;45572;-93
2022/11/24 10:44:28;;;;;;;;;3.50;3.00;;;;;13.95;82.24;100227.66;6069410;23;47110;-92
2022/11/24 10:46:56;;;;;;;;;3.25;2.00;;;;;14.53;84.36;100341.41;6078298;23;45208;-92
2022/11/24 10:49:37;;;;;;;;;2.00;2.00;;;;;15.12;85.36;100473.91;6105370;23;45243;-93
2022/11/24 10:52:18;;;;;;;;;3.00;3.00;;;;;14.03;84.15;100273.38;6198462;23;45353;-95
2022/11/24 10:55:00;;;;;;;;;4.00;4.00;;;;;14.42;77.95;100313.50;6193703;23;45816;-92
2022/11/24 10:57:38;;;;;;;;;3.00;3.00;;;;;15.18;82.87;100423.09;6169682;23;45202;-92
2022/11/24 11:00:18;;;;;;;;;4.75;4.00;;;;;14.91;79.56;100370.94;6157154;23;45393;-94
2022/11/24 11:03:20;;;;;;;;;4.75;3.75;;;;;15.01;82.35;100406.00;6166955;23;45500;-93
2022/11/24 11:06:29;;;;;;;;;;;;;;;;;;;;;
2022/11/24 11:09:18;;;;;;;;;3.75;3.75;;;;;15.30;83.34;100377.31;6190176;23;72010;-94
2022/11/24 11:11:47;;;;;;;;;4.00;4.00;;;;;14.92;82.71;100279.56;6170362;23;44781;-91
2022/11/24 11:14:34;;;;;;;;;3.50;3.00;;;;;15.51;81.04;100338.22;6178153;23;44858;-92
2022/11/24 11:17:22;;;;;;;;;4.50;4.00;;;;;14.70;80.09;100148.38;6175796;23;45261;-94
2022/11/24 11:19:51;;;;;;;;;5.75;4.75;;;;;16.56;79.91;100423.25;6176210;23;44714;-92
2022/11/24 11:22:41;;;;;;;;;;;;;;;;;;;;;
2022/11/24 11:25:19;;;;;;;;;5.00;4.75;;;;;16.09;79.51;100252.09;6193680;23;69204;-93
2022/11/24 11:27:56;;;;;;;;;5.25;5.00;;;;;16.72;79.48;100344.22;6160964;23;46019;-94
2022/11/24 11:30:30;;;;;;;;;5.25;4.00;;;;;17.36;79.10;100395.34;6164092;23;45199;-94
2022/11/24 11:32:59;;;;;;;;;5.50;4.50;;;;;16.14;78.36;100162.13;6196095;23;44765;-93
2022/11/24 11:35:30;;;;;;;;;6.00;4.75;;;;;17.17;77.13;100312.63;6169227;23;45192;-92
2022/11/24 11:38:12;;;;;;;;;5.75;4.50;;;;;18.06;77.24;100397.97;6148948;23;47381;-93
2022/11/24 11:40:42;;;;;;;;;5.00;3.50;;;;;18.04;75.26;100343.72;6170140;23;45314;-92
2022/11/24 11:43:23;;;;;;;;;10.50;3.50;;;;;17.84;74.80;100244.06;6206095;23;45242;-93
2022/11/24 11:46:19;;;;;;;;;4.00;4.00;;;;;17.58;73.75;100130.56;6155110;23;44757;-93
2022/11/24 11:48:47;;;;;;;;;6.25;6.00;;;;;18.91;73.72;100279.00;6119043;23;46643;-93
2022/11/24 11:51:37;;;;;;;;;6.25;5.00;;;;;19.90;74.39;100382.94;6144991;23;44812;-92
2022/11/24 11:54:30;;;;;;;;;5.75;4.50;;;;;19.92;72.56;100305.06;6138101;23;45358;-93
2022/11/24 11:57:28;;;;;;;;;5.50;4.25;;;;;19.67;72.08;100202.91;6025367;23;44816;-93
2022/11/24 12:00:19;;;;;;;;;4.00;3.75;;;;;21.23;71.72;100377.13;6044022;23;45747;-92
2022/11/24 12:03:43;;;;;;;;;5.25;4.75;;;;;19.99;71.31;100108.81;6022043;23;45260;-93
2022/11/24 12:06:27;;;;;;;;;4.25;3.25;;;;;21.93;70.49;100373.22;6015675;23;45208;-93
2022/11/24 12:09:24;;;;;;;;;7.00;5.50;;;;;20.58;67.60;100119.13;6018595;23;45420;-93
2022/11/24 12:12:30;;;;;;;;;6.50;3.00;;;;;22.19;65.45;100361.44;5989718;23;47206;-92
2022/11/24 12:15:42;;;;;;;;;6.25;4.75;;;;;21.42;68.99;100247.69;5963922;23;45244;-93
2022/11/24 12:18:39;;;;;;;;;5.75;4.00;;;;;21.31;68.96;100224.25;5885274;24;45334;-92
2022/11/24 12:24:36;;;;;;;;;5.25;4.25;;;;;20.48;67.03;100122.56;5904405;24;45439;-92
2022/11/24 12:30:28;;;;;;;;;4.00;3.75;;;;;20.21;62.17;100206.66;5901988;23;45458;-93
2022/11/24 12:33:07;;;;;;;;;5.75;4.75;;;;;20.28;65.75;100296.47;5880297;23;45197;-93
2022/11/24 12:35:37;;;;;;;;;3.00;2.75;;;;;20.15;69.08;100298.25;5936497;23;47337;-93
2022/11/24 12:38:32;;;;;;;;;7.50;4.00;;;;;19.50;68.25;100165.59;5946046;23;44858;-93
2022/11/24 12:41:16;;;;;;;;;3.75;2.25;;;;;20.38;70.30;100294.94;5957073;23;45244;-93
2022/11/24 12:43:54;;;;;;;;;4.00;4.00;;;;;20.42;68.29;100292.88;5959355;23;45255;-93
2022/11/24 12:46:25;;;;;;;;;7.00;6.00;;;;;20.81;69.49;100331.53;5967446;23;46511;-91
2022/11/24 12:49:28;;;;;;;;;6.25;6.25;;;;;20.48;70.52;100339.94;5993288;23;45237;-93
2022/11/24 12:55:24;;;;;;;;;5.00;4.50;;;;;18.88;72.33;100286.38;6130423;23;45290;-92
2022/11/24 13:01:26;;;;;;;;;4.75;3.00;;;;;17.58;75.24;100290.88;6125066;23;45323;-92
2022/11/24 13:04:16;;;;;;;;;2.00;2.00;;;;;16.21;76.27;100156.47;6133518;23;45166;-92
2022/11/24 13:06:47;;;;;;;;;3.50;3.00;;;;;16.74;77.40;100334.31;6124082;23;45579;-92
2022/11/24 13:09:13;;;;;;;;;3.50;3.50;;;;;14.77;76.80;100079.81;6134477;23;46876;-91
2022/11/24 13:11:44;;;;;;;;;4.25;3.75;;;;;15.13;78.53;100210.34;6112897;23;45450;-92
2022/11/24 13:14:30;;;;;;;;;8.00;6.00;;;;;14.77;76.84;100211.00;6111943;23;45241;-91
2022/11/24 13:17:02;;;;;;;;;5.00;5.00;;;;;13.72;79.71;100077.16;6111067;23;45165;-92
2022/11/24 13:19:39;;;;;;;;;3.50;2.75;;;;;14.03;81.16;100190.16;6106201;23;48261;-92
2022/11/24 13:22:27;;;;;;;;;6.75;4.00;;;;;13.84;81.47;100193.50;6104421;23;45488;-92
2022/11/24 13:25:13;;;;;;;;;4.75;3.00;;;;;12.51;80.61;100008.41;6020300;23;45560;-93
2022/11/24 13:27:43;;;;;;;;;2.25;2.00;;;;;13.92;81.14;100291.50;6023518;23;45313;-91
2022/11/24 13:30:54;;;;;;;;;4.25;2.75;;;;;13.81;82.16;100312.31;6028050;23;47005;-90
2022/11/24 13:33:31;;;;;;;;;4.00;4.00;;;;;11.96;80.65;100043.88;6014821;23;45656;-92
2022/11/24 13:36:06;;;;;;;;;5.75;3.50;;;;;13.42;81.08;100319.03;5990659;23;45322;-92
2022/11/24 13:38:44;;;;;;;;;3.00;2.00;;;;;12.44;82.28;100178.25;5987769;23;45408;-92
2022/11/24 13:41:35;;;;;;;;;2.00;2.00;;;;;13.11;83.20;100343.94;5990536;23;47226;-92
2022/11/24 13:44:15;;;;;;;;;4.00;4.00;;;;;13.02;80.84;100316.88;5995830;23;45270;-92
2022/11/24 13:47:00;;;;;;;;;3.00;2.00;;;;;12.93;83.37;100313.59;5997328;23;45135;-91
2022/11/24 13:49:53;;;;;;;;;3.75;3.25;;;;;12.81;83.89;100340.53;6017171;23;44844;-90
2022/11/24 13:53:00;;;;;;;;;4.50;2.50;;;;;12.71;83.63;100312.59;5987974;23;46526;-94
2022/11/24 13:55:32;;;;;;;;;3.50;2.00;;;;;10.73;83.00;100011.56;5925386;24;45307;-92
2022/11/24 13:58:12;;;;;;;;;2.50;2.50;;;;;12.51;82.61;100310.56;5937710;24;45317;-92
2022/11/24 14:01:22;;;;;;;;;6.00;3.75;;;;;12.45;83.32;100311.66;5937014;23;45276;-93
2022/11/24 14:03:54;;;;;;;;;5.25;3.50;;;;;12.39;84.48;100322.44;6013792;23;45369;-92
2022/11/24 14:06:36;;;;;;;;;5.25;2.75;;;;;12.36;84.58;100339.31;6010290;23;45448;-91
2022/11/24 14:09:25;;;;;;;;;4.00;3.00;;;;;12.32;84.23;100358.00;5988109;23;45249;-92
2022/11/24 14:12:02;;;;;;;;;6.25;2.75;;;;;11.01;83.64;100127.13;6023374;23;45217;-92
2022/11/24 14:14:30;;;;;;;;;2.75;2.75;;;;;11.62;84.08;100237.34;6018572;23;45541;-92
2022/11/24 14:17:14;;;;;;;;;3.00;3.00;;;;;11.20;85.39;100181.22;6044717;23;45277;-92
2022/11/24 14:19:45;;;;;;;;;5.50;4.50;;;;;11.44;83.48;100199.94;6022928;23;45454;-89
2022/11/24 14:22:21;;;;;;;;;4.50;3.25;;;;;11.13;85.40;100160.25;6045793;23;45254;-91
2022/11/24 14:24:58;;;;;;;;;4.00;2.25;;;;;11.41;85.22;100204.44;6024346;23;47053;-91
2022/11/24 14:27:38;;;;;;;;;4.00;2.75;;;;;12.15;85.67;100324.09;6043157;23;45319;-91
2022/11/24 14:30:07;;;;;;;;;3.75;3.00;;;;;12.05;85.07;100307.59;6040014;23;45318;-91
2022/11/24 14:32:36;;;;;;;;;3.50;3.50;;;;;11.24;86.50;100175.84;6044139;23;45247;-91
2022/11/24 14:35:19;;;;;;;;;7.75;3.50;;;;;10.37;84.31;100029.34;6072773;23;47123;-92
2022/11/24 14:37:44;;;;;;;;;6.50;4.25;;;;;11.12;85.30;100146.16;6074622;23;46003;-92
2022/11/24 14:40:44;;;;;;;;;3.75;2.75;;;;;10.58;85.21;100049.91;6110150;23;45218;-92
2022/11/24 14:43:29;;;;;;;;;7.25;4.00;;;;;11.61;82.83;100227.66;6174098;23;45293;-91
2022/11/24 14:46:06;;;;;;;;;3.25;3.25;;;;;11.63;85.73;100242.59;6175845;23;45142;-91
2022/11/24 14:48:37;;;;;;;;;8.00;4.75;;;;;11.08;85.17;100156.88;6178802;23;44679;-90
2022/11/24 14:51:43;;;;;;;;;3.25;3.25;;;;;11.94;85.93;100299.13;6202585;23;44872;-92
2022/11/24 14:54:21;;;;;;;;;5.75;3.75;;;;;11.17;86.46;100156.63;6094348;23;44819;-91
2022/11/24 14:57:04;;;;;;;;;7.25;6.00;;;;;10.71;84.81;100098.00;6143998;23;47443;-91
2022/11/24 14:59:37;;;;;;;;;4.75;4.75;;;;;11.19;85.97;100189.19;6135135;23;45295;-91
2022/11/24 15:02:25;;;;;;;;;3.25;2.00;;;;;11.34;84.36;100199.34;6123371;23;45231;-91
2022/11/24 15:04:59;;;;;;;;;4.00;4.00;;;;;11.24;86.53;100197.00;6123937;23;45369;-93
2022/11/24 15:07:27;;;;;;;;;4.25;3.75;;;;;11.67;86.07;100286.59;6107008;23;46819;-90
2022/11/24 15:10:01;;;;;;;;;4.75;4.75;;;;;11.66;86.63;100297.22;6109347;23;44815;-91
2022/11/24 15:12:27;;;;;;;;;2.25;1.50;;;;;10.91;85.59;100157.38;6136867;23;44868;-91
2022/11/24 15:14:56;;;;;;;;;5.50;4.25;;;;;11.63;86.60;100289.38;6139911;23;44956;-92
2022/11/24 15:17:33;;;;;;;;;5.50;4.25;;;;;11.28;86.31;100225.09;6146452;23;45330;-91
2022/11/24 15:20:01;;;;;;;;;4.00;3.75;;;;;9.50;87.41;99933.06;6145895;23;44707;-91
2022/11/24 15:22:42;;;;;;;;;7.00;5.50;;;;;11.25;85.97;100241.03;6113961;23;45200;-90
2022/11/24 15:25:32;;;;;;;;;6.00;4.25;;;;;11.52;87.19;100266.75;6101432;23;45193;-91
2022/11/24 15:27:58;;;;;;;;;5.00;3.25;;;;;10.29;86.67;100066.50;6099424;23;46289;-91
2022/11/24 15:30:25;;;;;;;;;7.50;6.00;;;;;11.11;88.08;100202.63;6115351;23;45282;-89
2022/11/24 15:32:56;;;;;;;;;5.00;4.00;;;;;11.37;86.29;100261.88;6159664;23;45212;-90
2022/11/24 15:35:24;;;;;;;;;4.00;3.50;;;;;9.63;87.48;99957.38;6166456;23;45240;-91
2022/11/24 15:37:50;;;;;;;;;4.00;4.00;;;;;10.30;88.10;100060.31;6169238;23;47475;-90
2022/11/24 15:40:17;;;;;;;;;7.00;5.00;;;;;11.54;87.33;100296.66;6169863;23;44797;-91
2022/11/24 15:42:50;;;;;;;;;3.75;3.00;;;;;10.75;87.63;100141.94;6174069;23;45203;-91
2022/11/24 15:45:18;;;;;;;;;2.25;2.25;;;;;11.54;88.53;100275.50;6171998;23;45160;-91
2022/11/24 15:47:44;;;;;;;;;3.75;2.25;;;;;11.29;88.12;100227.69;6168477;23;46641;-93
2022/11/24 15:50:12;;;;;;;;;3.50;3.00;;;;;10.48;87.62;100082.78;6196016;23;45375;-91
2022/11/24 15:52:39;;;;;;;;;4.50;3.50;;;;;10.05;89.01;100017.84;6162288;23;45190;-91
2022/11/24 15:55:09;;;;;;;;;4.00;3.00;;;;;11.29;88.83;100217.09;6162776;23;45164;-91
2022/11/24 15:57:35;;;;;;;;;3.25;2.00;;;;;10.42;88.10;100097.00;6159696;23;47615;-91
2022/11/24 16:00:00;;;;;;;;;4.50;4.50;;;;;11.14;88.91;100186.66;6169451;23;45242;-89
2022/11/24 16:02:26;;;;;;;;;7.75;3.25;;;;;10.48;88.53;100094.19;6194044;23;45262;-92
2022/11/24 16:04:52;;;;;;;;;2.00;2.00;;;;;10.33;88.29;100060.28;6186047;23;45392;-91
2022/11/24 16:07:18;;;;;;;;;2.25;2.25;;;;;11.42;88.92;100217.63;6165099;22;46026;-90
2022/11/24 16:09:43;;;;;;;;;4.25;4.00;;;;;10.53;89.29;100062.38;6174645;22;45153;-91
2022/11/24 16:12:09;;;;;;;;;6.25;4.75;;;;;9.45;88.98;99880.44;6207819;22;44621;-91
2022/11/24 16:14:35;;;;;;;;;3.00;3.00;;;;;9.84;88.09;99948.00;6203252;22;45139;-91
2022/11/24 16:17:05;;;;;;;;;4.50;3.50;;;;;11.51;88.13;100233.25;6195306;22;47205;-92
2022/11/24 16:19:30;;;;;;;;;3.00;3.00;;;;;10.03;88.95;100009.97;6174850;22;45345;-91
2022/11/24 16:21:56;;;;;;;;;3.00;3.00;;;;;9.65;88.74;99935.31;6227109;22;45326;-91
2022/11/24 16:24:21;;;;;;;;;6.00;4.00;;;;;9.56;89.28;99928.50;6203500;22;45307;-91
2022/11/24 16:26:47;;;;;;;;;7.25;4.25;;;;;10.42;89.49;100070.59;6200828;22;47017;-90
2022/11/24 16:29:12;;;;;;;;;5.00;3.25;;;;;11.48;90.00;100254.50;6190498;22;46132;-93
2022/11/24 16:31:45;;;;;;;;;4.25;3.25;;;;;10.84;90.60;100131.09;6191606;22;45212;-92
2022/11/24 16:34:11;;;;;;;;;3.75;3.00;;;;;11.53;89.46;100243.78;6193087;22;45357;-91
2022/11/24 16:36:36;;;;;;;;;5.00;5.00;;;;;10.90;89.29;100150.34;6196992;22;47407;-92
2022/11/24 16:39:03;;;;;;;;;3.00;3.00;;;;;9.48;89.34;99901.47;6205427;22;45204;-92
2022/11/24 16:41:29;;;;;;;;;6.25;4.00;;;;;11.52;89.61;100248.22;6183127;22;45212;-91
2022/11/24 16:43:56;;;;;;;;;5.00;2.25;;;;;11.54;89.54;100242.88;6202213;22;45250;-92
2022/11/24 16:46:24;;;;;;;;;8.25;3.50;;;;;9.66;88.88;99941.47;6201283;22;46813;-90
2022/11/24 16:48:52;;;;;;;;;6.25;4.50;;;;;11.53;89.36;100247.28;6201320;22;45252;-92
2022/11/24 16:51:24;;;;;;;;;3.50;3.00;;;;;11.52;89.53;100250.88;6199805;22;44682;-92
2022/11/24 16:53:58;;;;;;;;;5.00;3.00;;;;;11.26;90.43;100196.03;6198904;22;44868;-92
2022/11/24 16:56:26;;;;;;;;;3.75;3.75;;;;;10.59;90.37;100101.84;6200143;22;47139;-93
2022/11/24 16:58:52;;;;;;;;;4.25;4.00;;;;;10.81;90.49;100136.47;6200996;22;44816;-92
2022/11/24 17:01:18;;;;;;;;;3.00;2.00;;;;;10.02;90.82;99980.97;6190490;22;45315;-92
2022/11/24 17:03:44;;;;;;;;;3.50;2.25;;;;;11.55;90.48;100239.31;6193627;22;45282;-93
2022/11/24 17:06:12;;;;;;;;;4.25;3.25;;;;;10.48;90.11;100070.41;6200235;22;45200;-91
2022/11/24 17:08:39;;;;;;;;;4.50;1.50;;;;;9.73;90.22;99929.81;6208500;22;44592;-92